createdAt,value
2019-03-28T00:00:42.125Z,17.57
2019-03-28T00:03:15.245Z,16.85
2019-03-28T00:05:48.563Z,15.85
2019-03-28T00:08:29.122Z,16.93
2019-03-28T00:11:04.654Z,17.45
2019-03-28T00:13:37.256Z,15.63
2019-03-28T00:16:11.453Z,15.85
2019-03-28T00:18:45.893Z,18.50
2019-03-28T00:21:19.519Z,15.30
2019-03-28T00:23:59.495Z,16.80
2019-03-28T00:26:32.044Z,19.70
2019-03-28T00:29:04.241Z,18.05
2019-03-28T00:31:47.781Z,17.20
2019-03-28T00:34:19.157Z,19.77
2019-03-28T00:36:53.106Z,15.60
2019-03-28T00:39:25.530Z,15.80
2019-03-28T00:41:58.050Z,16.82
2019-03-28T00:44:31.171Z,17.90
2019-03-28T00:47:14.502Z,18.30
2019-03-28T00:49:51.472Z,15.50
2019-03-28T00:52:24.526Z,14.73
2019-03-28T00:54:58.300Z,20.62
2019-03-28T00:57:30.329Z,20.43
2019-03-28T01:00:02.499Z,15.55
2019-03-28T01:02:36.384Z,14.40
2019-03-28T01:05:09.514Z,15.10
2019-03-28T01:07:41.725Z,19.42
2019-03-28T01:10:14.183Z,15.00
2019-03-28T01:12:46.805Z,15.05
2019-03-28T01:15:19.281Z,17.15
2019-03-28T01:17:55.185Z,15.53
2019-03-28T01:20:27.510Z,17.77
2019-03-28T01:23:00.072Z,17.40
2019-03-28T01:25:36.971Z,17.82
2019-03-28T01:28:13.722Z,18.52
2019-03-28T01:30:49.159Z,15.08
2019-03-28T01:33:22.596Z,17.25
2019-03-28T01:38:27.186Z,17.32
2019-03-28T01:40:59.838Z,14.25
2019-03-28T01:43:32.196Z,17.80
2019-03-28T01:46:05.766Z,19.47
2019-03-28T01:48:41.246Z,14.63
2019-03-28T01:51:19.707Z,16.82
2019-03-28T01:53:48.134Z,16.48
2019-03-28T01:56:26.408Z,16.82
2019-03-28T01:59:07.164Z,21.62
2019-03-28T02:01:40.535Z,16.12
2019-03-28T02:04:18.770Z,18.07
2019-03-28T02:06:51.102Z,20.97
2019-03-28T02:09:23.435Z,17.82
2019-03-28T02:11:57.587Z,18.15
2019-03-28T02:14:31.851Z,16.90
2019-03-28T02:17:12.177Z,16.82
2019-03-28T02:19:46.241Z,18.23
2019-03-28T02:22:22.435Z,15.28
2019-03-28T02:24:54.845Z,16.00
2019-03-28T02:27:27.049Z,17.50
2019-03-28T02:29:59.239Z,16.95
2019-03-28T02:32:34.217Z,17.07
2019-03-28T02:35:08.142Z,20.30
2019-03-28T02:37:40.475Z,15.68
2019-03-28T02:40:17.355Z,16.20
2019-03-28T02:42:51.748Z,18.02
2019-03-28T02:45:23.803Z,18.02
2019-03-28T02:48:01.666Z,18.17
2019-03-28T02:50:34.951Z,18.65
2019-03-28T02:53:08.190Z,17.80
2019-03-28T02:55:45.885Z,17.07
2019-03-28T02:58:21.111Z,18.00
2019-03-28T03:00:53.497Z,17.98
2019-03-28T03:03:25.900Z,15.50
2019-03-28T03:05:58.240Z,19.73
2019-03-28T03:08:41.949Z,17.10
2019-03-28T03:13:45.883Z,19.40
2019-03-28T03:16:20.320Z,17.42
2019-03-28T03:18:52.904Z,16.93
2019-03-28T03:21:25.128Z,14.93
2019-03-28T03:23:57.430Z,15.80
2019-03-28T03:26:31.723Z,17.50
2019-03-28T03:29:03.816Z,18.45
2019-03-28T03:31:37.445Z,15.72
2019-03-28T03:34:13.203Z,16.62
2019-03-28T03:36:48.907Z,17.65
2019-03-28T03:39:21.667Z,17.57
2019-03-28T03:41:55.060Z,15.85
2019-03-28T03:44:27.157Z,13.58
2019-03-28T03:47:02.744Z,15.20
2019-03-28T03:49:34.724Z,18.98
2019-03-28T03:52:07.471Z,15.90
2019-03-28T03:54:42.048Z,15.93
2019-03-28T03:57:14.456Z,16.70
2019-03-28T03:59:51.393Z,19.63
2019-03-28T04:02:25.531Z,15.60
2019-03-28T04:04:57.943Z,14.98
2019-03-28T04:07:34.593Z,16.67
2019-03-28T04:10:06.986Z,16.02
2019-03-28T04:12:39.858Z,18.30
2019-03-28T04:15:20.407Z,17.45
2019-03-28T04:17:53.057Z,18.75
2019-03-28T04:20:28.496Z,23.15
2019-03-28T04:23:01.116Z,19.02
2019-03-28T04:25:35.176Z,17.62
2019-03-28T04:28:30.710Z,21.90
2019-03-28T04:30:50.762Z,17.75
2019-03-28T04:33:23.970Z,20.25
2019-03-28T04:35:58.655Z,20.05
2019-03-28T04:38:34.685Z,19.00
2019-03-28T04:41:10.469Z,18.12
2019-03-28T04:43:44.135Z,21.82
2019-03-28T04:46:22.374Z,21.23
2019-03-28T04:48:55.985Z,22.67
2019-03-28T04:51:32.675Z,19.37
2019-03-28T04:54:04.689Z,21.05
2019-03-28T04:56:37.009Z,22.32
2019-03-28T04:59:13.736Z,19.67
2019-03-28T05:01:59.692Z,18.82
2019-03-28T05:04:25.445Z,19.17
2019-03-28T05:06:57.813Z,22.50
2019-03-28T05:09:29.799Z,19.48
2019-03-28T05:12:02.855Z,20.85
2019-03-28T05:14:38.758Z,21.80
2019-03-28T05:17:12.404Z,20.55
2019-03-28T05:19:45.655Z,19.73
2019-03-28T05:22:41.222Z,17.98
2019-03-28T05:25:20.346Z,21.45
2019-03-28T05:27:59.748Z,20.30
2019-03-28T05:30:43.460Z,21.48
2019-03-28T05:33:19.631Z,22.48
2019-03-28T05:35:52.349Z,20.32
2019-03-28T05:38:28.395Z,20.43
2019-03-28T05:41:01.843Z,19.92
2019-03-28T05:43:41.941Z,24.77
2019-03-28T05:46:28.119Z,21.75
2019-03-28T05:49:05.345Z,20.65
2019-03-28T05:51:37.673Z,19.70
2019-03-28T05:54:13.411Z,19.42
2019-03-28T05:56:49.306Z,23.12
2019-03-28T05:59:22.173Z,24.87
2019-03-28T06:02:00.557Z,23.47
2019-03-28T06:04:35.369Z,22.17
2019-03-28T06:07:08.884Z,25.25
2019-03-28T06:09:42.837Z,24.32
2019-03-28T06:12:18.798Z,24.75
2019-03-28T06:14:49.894Z,22.22
2019-03-28T06:17:28.434Z,22.20
2019-03-28T06:20:01.671Z,23.27
2019-03-28T06:22:35.433Z,23.55
2019-03-28T06:25:09.433Z,25.80
2019-03-28T06:27:41.766Z,23.60
2019-03-28T06:30:14.279Z,23.98
2019-03-28T06:32:48.078Z,25.88
2019-03-28T06:35:22.020Z,25.48
2019-03-28T06:37:54.514Z,25.23
2019-03-28T06:40:27.008Z,23.83
2019-03-28T06:43:00.145Z,24.07
2019-03-28T06:45:35.664Z,25.85
2019-03-28T06:48:13.197Z,22.77
2019-03-28T06:50:46.523Z,24.85
2019-03-28T06:56:05.180Z,22.35
2019-03-28T06:58:37.978Z,22.75
2019-03-28T07:01:12.243Z,23.18
2019-03-28T07:03:47.261Z,22.60
2019-03-28T07:06:19.743Z,25.30
2019-03-28T07:08:55.154Z,24.92
2019-03-28T07:11:28.440Z,23.80
2019-03-28T07:16:52.609Z,22.95
2019-03-28T07:19:24.873Z,24.65
2019-03-28T07:21:57.448Z,27.15
2019-03-28T07:24:31.192Z,25.00
2019-03-28T07:27:12.060Z,22.87
2019-03-28T07:29:56.587Z,23.45
2019-03-28T07:32:29.655Z,22.85
2019-03-28T07:35:04.289Z,27.73
2019-03-28T07:37:43.722Z,25.75
2019-03-28T07:40:33.391Z,30.32
2019-03-28T07:43:39.349Z,24.63
2019-03-28T07:46:25.031Z,32.58
2019-03-28T07:49:25.146Z,26.70
2019-03-28T07:52:26.007Z,29.87
2019-03-28T07:55:47.103Z,27.22
2019-03-28T07:58:29.292Z,29.85
2019-03-28T08:05:19.438Z,28.07
2019-03-28T08:08:19.246Z,29.15
2019-03-28T08:10:54.044Z,30.40
2019-03-28T08:13:27.528Z,28.12
2019-03-28T08:16:00.248Z,27.65
2019-03-28T08:18:53.150Z,25.05
2019-03-28T08:21:39.446Z,25.00
2019-03-28T08:24:23.442Z,25.60
2019-03-28T08:27:29.602Z,25.40
2019-03-28T08:30:47.817Z,27.65
2019-03-28T08:37:05.126Z,20.32
2019-03-28T08:39:55.670Z,20.92
2019-03-28T08:42:43.103Z,21.00
2019-03-28T08:45:39.366Z,22.95
2019-03-28T08:48:46.686Z,20.48
2019-03-28T08:51:42.795Z,18.75
2019-03-28T08:54:33.288Z,21.55
2019-03-28T08:57:09.735Z,19.98
2019-03-28T09:00:01.305Z,19.60
2019-03-28T09:02:44.926Z,19.25
2019-03-28T09:05:47.639Z,17.20
2019-03-28T09:08:20.918Z,19.05
2019-03-28T09:10:52.794Z,14.80
2019-03-28T09:13:26.201Z,18.65
2019-03-28T09:18:35.390Z,17.48
2019-03-28T09:21:07.539Z,18.82
2019-03-28T09:23:39.881Z,15.30
2019-03-28T09:26:12.188Z,27.73
2019-03-28T09:28:44.314Z,17.37
2019-03-28T09:31:20.196Z,16.37
2019-03-28T09:33:51.537Z,14.90
2019-03-28T09:36:24.675Z,14.55
2019-03-28T09:38:56.614Z,16.70
2019-03-28T09:41:29.389Z,14.03
2019-03-28T09:44:02.173Z,15.08
2019-03-28T09:46:34.701Z,15.05
2019-03-28T09:49:06.589Z,15.83
2019-03-28T09:51:39.543Z,14.00
2019-03-28T09:54:11.439Z,15.40
2019-03-28T09:56:43.761Z,13.98
2019-03-28T09:59:16.361Z,13.50
2019-03-28T10:01:48.400Z,15.90
2019-03-28T10:04:20.621Z,14.25
2019-03-28T10:06:52.576Z,13.10
2019-03-28T10:09:24.545Z,14.73
2019-03-28T10:11:56.893Z,12.98
2019-03-28T10:14:29.953Z,17.10
2019-03-28T10:17:02.017Z,13.35
2019-03-28T10:19:33.947Z,17.42
2019-03-28T10:22:05.893Z,14.98
2019-03-28T10:24:38.190Z,15.45
2019-03-28T10:27:10.116Z,15.10
2019-03-28T10:29:41.983Z,13.40
2019-03-28T10:32:15.384Z,13.62
2019-03-28T10:34:49.082Z,14.10
2019-03-28T10:37:21.653Z,15.48
2019-03-28T10:39:53.686Z,13.25
2019-03-28T10:42:26.527Z,14.47
2019-03-28T10:44:59.067Z,13.05
2019-03-28T10:47:31.470Z,11.60
2019-03-28T10:50:05.040Z,12.40
2019-03-28T10:52:37.153Z,14.30
2019-03-28T10:55:10.588Z,13.43
2019-03-28T10:57:42.610Z,13.38
2019-03-28T11:00:24.001Z,12.88
2019-03-28T11:02:50.448Z,11.68
2019-03-28T11:05:22.526Z,9.33
2019-03-28T11:07:54.735Z,10.85
2019-03-28T11:10:30.237Z,13.55
2019-03-28T11:13:00.422Z,11.70
2019-03-28T11:15:32.900Z,21.57
2019-03-28T11:18:04.893Z,13.60
2019-03-28T11:20:39.813Z,10.15
2019-03-28T11:23:10.616Z,9.48
2019-03-28T11:25:42.582Z,8.20
2019-03-28T11:28:15.102Z,7.42
2019-03-28T11:30:51.588Z,8.25
2019-03-28T11:33:24.657Z,8.73
2019-03-28T11:35:57.838Z,8.70
2019-03-28T11:38:30.257Z,9.00
2019-03-28T11:41:02.281Z,8.83
2019-03-28T11:43:34.530Z,10.08
2019-03-28T11:46:06.442Z,8.68
2019-03-28T11:48:41.798Z,7.50
2019-03-28T11:51:13.813Z,9.13
2019-03-28T11:53:46.332Z,7.40
2019-03-28T11:56:20.020Z,8.33
2019-03-28T11:58:52.451Z,8.15
2019-03-28T12:01:25.127Z,11.90
2019-03-28T12:03:57.069Z,11.22
2019-03-28T12:06:29.459Z,13.50
2019-03-28T12:09:02.558Z,12.98
2019-03-28T12:11:36.531Z,13.48
2019-03-28T12:14:08.933Z,11.70
2019-03-28T12:16:41.209Z,12.90
2019-03-28T12:19:14.104Z,15.83
2019-03-28T12:21:47.072Z,12.40
2019-03-28T12:24:19.553Z,11.93
2019-03-28T12:26:52.050Z,15.32
2019-03-28T12:29:24.104Z,11.53
2019-03-28T12:31:56.941Z,16.55
2019-03-28T12:34:29.471Z,13.75
2019-03-28T12:37:01.790Z,11.83
2019-03-28T12:39:34.313Z,11.93
2019-03-28T12:42:06.760Z,12.47
2019-03-28T12:44:39.715Z,13.13
2019-03-28T12:47:11.754Z,14.10
2019-03-28T12:49:44.234Z,12.43
2019-03-28T12:52:17.295Z,15.97
2019-03-28T12:54:49.767Z,17.17
2019-03-28T12:57:21.673Z,14.23
2019-03-28T12:59:54.060Z,12.07
2019-03-28T13:02:31.507Z,13.68
2019-03-28T13:04:59.736Z,15.68
2019-03-28T13:07:32.106Z,13.80
2019-03-28T13:10:05.073Z,13.30
2019-03-28T13:12:37.730Z,14.05
2019-03-28T13:15:10.108Z,15.10
2019-03-28T13:17:42.463Z,14.47
2019-03-28T13:20:16.078Z,12.70
2019-03-28T13:22:51.914Z,13.62
2019-03-28T13:25:22.865Z,13.25
2019-03-28T13:27:55.335Z,14.83
2019-03-28T13:30:27.752Z,11.33
2019-03-28T13:33:00.095Z,13.27
2019-03-28T13:35:34.858Z,12.28
2019-03-28T13:38:05.696Z,11.55
2019-03-28T13:40:38.596Z,12.35
2019-03-28T13:43:10.955Z,13.03
2019-03-28T13:45:43.327Z,12.97
2019-03-28T13:48:15.303Z,12.07
2019-03-28T13:50:48.049Z,12.98
2019-03-28T13:53:19.974Z,15.68
2019-03-28T13:55:52.366Z,13.50
2019-03-28T13:58:25.554Z,15.45
2019-03-28T14:03:28.809Z,13.80
2019-03-28T14:06:00.799Z,12.65
2019-03-28T14:08:33.530Z,14.45
2019-03-28T14:11:05.520Z,12.20
2019-03-28T14:13:37.994Z,13.00
2019-03-28T14:16:09.928Z,11.20
2019-03-28T14:18:41.897Z,13.98
2019-03-28T14:21:14.826Z,15.20
2019-03-28T14:23:46.822Z,9.58
2019-03-28T14:26:19.236Z,13.60
2019-03-28T14:28:53.614Z,11.75
2019-03-28T14:31:26.637Z,12.13
2019-03-28T14:33:58.656Z,12.33
2019-03-28T14:36:35.025Z,10.85
2019-03-28T14:39:08.762Z,9.75
2019-03-28T14:41:41.505Z,11.80
2019-03-28T14:44:13.798Z,11.18
2019-03-28T14:46:46.111Z,11.70
2019-03-28T14:49:18.772Z,11.45
2019-03-28T14:51:50.814Z,10.82
2019-03-28T14:54:22.821Z,11.03
2019-03-28T14:56:56.053Z,14.65
2019-03-28T14:59:32.829Z,12.73
2019-03-28T15:02:03.680Z,10.95
2019-03-28T15:04:35.704Z,10.40
2019-03-28T15:07:08.675Z,8.93
2019-03-28T15:10:15.217Z,8.60
2019-03-28T15:25:56.494Z,9.18
2019-03-28T15:34:00.548Z,6.87
2019-03-28T15:37:28.242Z,8.73
2019-03-28T15:48:19.049Z,7.33
2019-03-28T16:06:46.889Z,9.68
2019-03-28T16:13:08.909Z,6.67
2019-03-28T16:19:49.672Z,5.75
2019-03-28T16:23:24.915Z,6.40
2019-03-28T16:27:06.693Z,6.15
2019-03-28T16:34:07.052Z,8.68
2019-03-28T16:38:21.291Z,7.92
2019-03-28T19:04:55.927Z,96.87
2019-03-28T19:07:29.033Z,126.65
2019-03-28T19:10:01.250Z,127.37
2019-03-28T19:12:35.208Z,123.55
2019-03-28T19:15:07.816Z,89.13
2019-03-28T19:17:40.848Z,92.90
2019-03-28T19:20:14.813Z,78.00
2019-03-28T19:22:50.066Z,62.88
2019-03-28T19:25:22.504Z,42.83
2019-03-28T19:27:55.237Z,33.42
2019-03-28T19:30:36.691Z,25.88
2019-03-28T19:33:10.171Z,18.42
2019-03-28T19:35:42.428Z,13.93
2019-03-28T19:38:16.696Z,9.28
2019-03-28T19:40:50.365Z,11.45
2019-03-28T19:43:23.224Z,8.03
2019-03-28T19:45:57.475Z,5.60
2019-03-28T19:48:29.929Z,7.72
2019-03-28T19:51:02.941Z,8.20
2019-03-28T19:53:35.824Z,7.92
2019-03-28T19:56:08.674Z,6.12
2019-03-28T19:58:41.111Z,7.62
2019-03-28T20:01:14.296Z,6.73
2019-03-28T20:03:47.187Z,7.70
2019-03-28T20:06:22.281Z,5.33
2019-03-28T20:08:54.298Z,5.28
2019-03-28T20:11:30.054Z,6.85
2019-03-28T20:14:03.277Z,6.28
2019-03-28T20:16:38.908Z,5.53
2019-03-28T20:19:11.719Z,5.12
2019-03-28T20:21:44.720Z,4.22
2019-03-28T20:24:17.171Z,7.22
2019-03-28T20:26:49.171Z,6.37
2019-03-28T20:29:33.351Z,5.05
2019-03-28T20:32:08.072Z,5.20
2019-03-28T20:34:40.191Z,5.12
2019-03-28T20:37:13.607Z,4.47
2019-03-28T20:39:50.737Z,5.65
2019-03-28T20:42:23.341Z,3.90
2019-03-28T20:44:56.241Z,5.55
2019-03-28T20:47:28.285Z,5.03
2019-03-28T20:50:01.487Z,5.72
2019-03-28T20:55:06.416Z,8.73
2019-03-28T20:57:40.418Z,5.80
2019-03-28T21:00:16.150Z,4.78
2019-03-28T21:02:49.076Z,5.75
2019-03-28T21:05:21.076Z,5.35
2019-03-28T21:07:54.420Z,5.55
2019-03-28T21:10:26.797Z,5.35
2019-03-28T21:12:59.596Z,5.97
2019-03-28T21:15:34.845Z,6.35
2019-03-28T21:18:07.614Z,5.53
2019-03-28T21:20:41.452Z,5.15
2019-03-28T21:23:13.851Z,5.12
2019-03-28T21:25:45.873Z,5.35
2019-03-28T21:28:18.206Z,6.65
2019-03-28T21:30:50.778Z,5.45
2019-03-28T21:33:24.320Z,8.48
2019-03-28T21:35:57.039Z,6.70
2019-03-28T21:38:30.134Z,7.22
2019-03-28T21:41:04.044Z,7.10
2019-03-28T21:43:36.890Z,20.17
2019-03-28T21:46:10.504Z,32.05
2019-03-28T21:48:43.153Z,92.02
2019-03-28T21:51:16.205Z,77.47
2019-03-28T21:53:48.218Z,72.40
2019-03-28T21:56:20.743Z,72.17
2019-03-28T21:58:56.889Z,51.65
2019-03-28T22:01:29.476Z,33.95
2019-03-28T22:04:03.534Z,27.23
2019-03-28T22:06:42.737Z,23.25
2019-03-28T22:09:11.038Z,18.98
2019-03-28T22:11:43.747Z,16.97
2019-03-28T22:14:17.193Z,15.98
2019-03-28T22:16:51.442Z,15.25
2019-03-28T22:19:25.903Z,13.68
2019-03-28T22:21:58.412Z,13.13
2019-03-28T22:24:30.722Z,11.83
2019-03-28T22:27:04.094Z,9.10
2019-03-28T22:32:07.189Z,9.90
2019-03-28T22:34:39.783Z,22.82
2019-03-28T22:37:12.159Z,100.77
2019-03-28T22:39:44.089Z,123.23
2019-03-28T22:42:16.273Z,111.85
2019-03-28T22:44:48.624Z,131.30
2019-03-28T22:47:20.624Z,197.30
2019-03-28T22:49:52.723Z,198.05
2019-03-28T22:52:25.759Z,153.00
2019-03-28T22:54:57.966Z,114.32
2019-03-28T22:57:31.054Z,86.28
2019-03-28T23:00:11.106Z,71.40
2019-03-28T23:02:45.166Z,56.63
2019-03-28T23:05:17.629Z,40.35
2019-03-28T23:07:50.013Z,42.00
2019-03-28T23:10:22.076Z,32.50
2019-03-28T23:12:54.633Z,26.12
2019-03-28T23:15:27.130Z,21.93
2019-03-28T23:17:59.983Z,16.33
2019-03-28T23:20:33.790Z,17.95
2019-03-28T23:23:08.270Z,17.67
2019-03-28T23:25:40.429Z,15.83
2019-03-28T23:28:12.478Z,13.30
2019-03-28T23:30:46.428Z,16.25
2019-03-28T23:33:19.241Z,9.93
2019-03-28T23:35:51.316Z,12.07
2019-03-28T23:38:24.029Z,9.80
2019-03-28T23:40:56.394Z,11.83
2019-03-28T23:43:28.307Z,8.83
2019-03-28T23:46:01.682Z,8.63
2019-03-28T23:48:38.136Z,8.73
2019-03-28T23:51:10.156Z,8.05
2019-03-28T23:53:44.494Z,6.17
2019-03-28T23:56:16.678Z,8.58
2019-03-28T23:58:48.621Z,8.95
